Wahpeton, Iowa
Current Conditions -  °F | °C
As of 5:13 AM on Sunday 21 Dec 2014 (Local Time) from KMJQ Reporting Station
Haze Haze  
Wind Chill: 23°   Ceiling: 200
Heat Index: 32°   Visibility: 0.75mi
Dew Point: 32°   Wind: 12mph
Humidity: 100%   Direction: 160°SSE
Pressure: 29.87"   Gusts: NA
Location:  43.4265°N, 95.1547°W
Report Text: KMJQ 211113Z AUTO 16010KT 3/4SM BR OVC002 00/00 A2987 RMK AO2
Loading
Personal Weather Stations






























Interactive Weather Map New forecast layout! Learn more

10-Day Weather Forecast

Advertisements
Track Severe Weather on mobile